»·PEaware :: BAW193 EGLL-KDFW

BAW193 :: EGLL-KDFW

FLIGHT INFORMATION

Flight Status: Arrived
Operator:
British Airways
More flights by this operator :: More flights under this callsign
Pilot: Drew L. (13237)
Aircraft: BOEING 747-400 (WINGLETS)
(B744)
More flights by this aircraft type
Origin: EGLL Heathrow
United Kingdom
Destination: KDFW Dallas-Ft Worth Intl
United States
More flights between these airports :: More routes between these airports
Route: CPT4K CPT UL9 GAVGO UL18 DIKAS UL9 STU BAKUR BUNED TORLU ENOKU/M084F340 SUNOT 58N020W 59N030W 60N040W 60N045W/M083F360 59N050W BOKTO/N0487F360 N676A DUVBI VANSI/N0479F380 SSM TVC BDF MAGOO J105 SGF FSM RRNET SEEVR4
File this flight plan on PilotEdge
Remarks: PBN / A1B1D1O1S2 DOF / 180611 REG / N484SB EET / EISN0030 EGGX0058 58N020W0150 CZQX0231 60N040W0308 BGGL0311 60N045W0326 59N050W0345 CZQX0347 CZUL0453 CZYZ0605 KZMP0636 KZAU0702 KZKC0736 KZME0811 KZFW0827 OPR / BAW PER / D RALT / BIKF CYYR RMK / TCAS SIMBRIEF
Altitude:
(Current/Filed)
34,000ft
Speed:
(Current/Filed)
483kts
Departed: 11-Jun-18 02:27 AM
Arrived: 11-Jun-18 11:18 AM
Distance/Time
Traveled:
4116nm/8:51
Distance/Time
To Go:
Arrived

Flight Plot

Page will automatically refresh every two minutes.

Flight plan parsing failed; only flown route is shown


Map Options




Map Legend


Flown Route
Filed Route
Departure Airport
Arrival Airport
Navaid (VOR, NDB)
Fix

Horizontal Profiles

Position Reports

Time Latitude Longitude Heading Altitude Ground
Speed
11-Jun-18 02:06 51.470517 -0.460939 55 95ft 0kts
11-Jun-18 02:07 51.470517 -0.460939 55 95ft 0kts
11-Jun-18 02:08 51.470517 -0.460939 55 95ft 0kts
11-Jun-18 02:09 51.470517 -0.460939 55 96ft 0kts
11-Jun-18 02:10 51.470517 -0.460939 55 96ft 0kts
11-Jun-18 02:11 51.470517 -0.460939 55 96ft 0kts
11-Jun-18 02:12 51.470517 -0.460939 55 96ft 0kts
11-Jun-18 02:13 51.470517 -0.460939 55 96ft 0kts
11-Jun-18 02:14 51.470517 -0.460939 55 96ft 0kts
11-Jun-18 02:15 51.470517 -0.460939 55 96ft 0kts
11-Jun-18 02:16 51.470517 -0.460939 55 96ft 0kts
11-Jun-18 02:17 51.470517 -0.460939 55 96ft 0kts
11-Jun-18 02:18 51.470274 -0.461503 55 96ft 2kts
11-Jun-18 02:19 51.470077 -0.461963 55 96ft 0kts
11-Jun-18 02:20 51.470077 -0.461963 55 96ft 0kts
11-Jun-18 02:21 51.470077 -0.461963 55 96ft 0kts
11-Jun-18 02:22 51.470109 -0.461921 37 96ft 1kts
11-Jun-18 02:23 51.472349 -0.466169 276 96ft 16kts
11-Jun-18 02:24 51.473596 -0.467278 350 96ft 0kts
11-Jun-18 02:25 51.475909 -0.467727 87 96ft 12kts
11-Jun-18 02:26 51.475971 -0.457239 90 96ft 40kts
11-Jun-18 02:27 51.475913 -0.440161 88 96ft 49kts
11-Jun-18 02:28 51.477607 -0.449185 270 96ft 108kts
11-Jun-18 02:29 51.474627 -0.527593 259 2534ft 205kts
11-Jun-18 02:30 51.468938 -0.634658 270 4240ft 281kts
11-Jun-18 02:31 51.468954 -0.764609 270 6031ft 296kts
11-Jun-18 02:32 51.468354 -0.897355 270 6025ft 297kts
11-Jun-18 02:33 51.469664 -1.029003 278 6024ft 295kts
11-Jun-18 02:34 51.484985 -1.158437 281 6774ft 297kts
11-Jun-18 02:35 51.500978 -1.291281 281 9715ft 307kts
11-Jun-18 02:36 51.518833 -1.437105 281 11023ft 375kts
11-Jun-18 02:37 51.547094 -1.608856 285 13513ft 409kts
11-Jun-18 02:38 51.575819 -1.790004 282 16525ft 424kts
11-Jun-18 02:39 51.602074 -1.978328 281 19192ft 440kts
11-Jun-18 02:40 51.629272 -2.174386 281 21477ft 458kts
11-Jun-18 02:41 51.658352 -2.378363 282 23570ft 474kts
11-Jun-18 02:42 51.687510 -2.588592 281 25526ft 487kts
11-Jun-18 02:43 51.717330 -2.805313 282 27289ft 498kts
11-Jun-18 02:44 51.746135 -3.021495 281 29620ft 491kts
11-Jun-18 02:45 51.773965 -3.235514 281 31650ft 484kts
11-Jun-18 02:46 51.801221 -3.448023 280 33328ft 480kts
11-Jun-18 02:47 51.827597 -3.658435 280 34029ft 477kts
11-Jun-18 02:48 51.854111 -3.868184 281 34029ft 476kts
11-Jun-18 02:49 51.880795 -4.078306 280 34027ft 476kts
11-Jun-18 02:50 51.906461 -4.288116 280 34026ft 476kts
11-Jun-18 02:51 51.931753 -4.498527 280 34027ft 476kts
11-Jun-18 02:52 51.957314 -4.709934 280 34031ft 477kts
11-Jun-18 02:53 51.981479 -4.921256 279 34037ft 477kts
11-Jun-18 02:54 52.026366 -5.122371 299 34044ft 475kts
11-Jun-18 02:55 52.097593 -5.302911 301 34054ft 475kts
11-Jun-18 02:56 52.167776 -5.485117 300 34065ft 475kts
11-Jun-18 02:57 52.237717 -5.668675 300 34090ft 476kts
11-Jun-18 02:58 52.310440 -5.848954 302 34099ft 476kts
11-Jun-18 02:59 52.383170 -6.029596 301 34105ft 476kts
11-Jun-18 03:00 52.456461 -6.210631 303 34110ft 475kts
11-Jun-18 03:01 52.529111 -6.391448 301 34118ft 475kts
11-Jun-18 03:02 52.600771 -6.573434 301 34120ft 474kts
11-Jun-18 03:03 52.671993 -6.756245 301 34122ft 473kts
11-Jun-18 03:04 52.742341 -6.939181 301 34123ft 473kts
11-Jun-18 03:05 52.812503 -7.122450 301 34129ft 472kts
11-Jun-18 03:06 52.883725 -7.305654 301 34133ft 472kts
11-Jun-18 03:07 52.953110 -7.490044 301 34141ft 472kts
11-Jun-18 03:08 53.051144 -7.630498 335 34152ft 475kts
11-Jun-18 03:09 53.158616 -7.753768 316 34149ft 472kts
11-Jun-18 03:10 53.251835 -7.907175 314 34154ft 471kts
11-Jun-18 03:11 53.344865 -8.061521 315 34158ft 469kts
11-Jun-18 03:12 53.438075 -8.213652 315 34161ft 468kts
11-Jun-18 03:13 53.530641 -8.367147 315 34166ft 468kts
11-Jun-18 03:14 53.623208 -8.521999 314 34170ft 468kts
11-Jun-18 03:15 53.715171 -8.676910 314 34170ft 467kts
11-Jun-18 03:16 53.806763 -8.832217 314 34170ft 467kts
11-Jun-18 03:17 53.898414 -8.988653 314 34171ft 466kts
11-Jun-18 03:18 53.989298 -9.144806 314 34171ft 465kts
11-Jun-18 03:19 54.079282 -9.300434 314 34170ft 459kts
11-Jun-18 03:20 54.169011 -9.456642 314 34170ft 460kts
11-Jun-18 03:21 54.258265 -9.613050 313 34171ft 460kts
11-Jun-18 03:22 54.347302 -9.770113 313 34170ft 460kts
11-Jun-18 03:23 54.436364 -9.928268 313 34170ft 459kts
11-Jun-18 03:24 54.524736 -10.086245 313 34170ft 458kts
11-Jun-18 03:25 54.612694 -10.244531 313 34169ft 457kts
11-Jun-18 03:26 54.700536 -10.403668 313 34170ft 456kts
11-Jun-18 03:27 54.787678 -10.562597 313 34169ft 455kts
11-Jun-18 03:28 54.874702 -10.722379 313 34169ft 454kts
11-Jun-18 03:29 54.961053 -10.881993 313 34290ft 456kts
11-Jun-18 03:30 55.047731 -11.043299 312 35165ft 457kts
11-Jun-18 03:31 55.134522 -11.205917 312 35159ft 456kts
11-Jun-18 03:32 55.220639 -11.368380 312 35158ft 455kts
11-Jun-18 03:33 55.306448 -11.531372 312 35158ft 455kts
11-Jun-18 03:34 55.392186 -11.695352 312 35156ft 454kts
11-Jun-18 03:35 55.477279 -11.859223 312 35154ft 453kts
11-Jun-18 03:36 55.562024 -12.023553 312 35154ft 453kts
11-Jun-18 03:37 55.646821 -12.189127 311 35152ft 453kts
11-Jun-18 03:38 55.731105 -12.354848 311 35151ft 453kts
11-Jun-18 03:39 55.815182 -12.521317 311 35150ft 453kts
11-Jun-18 03:40 55.899330 -12.689103 311 35149ft 454kts
11-Jun-18 03:41 55.983119 -12.857354 311 35148ft 454kts
11-Jun-18 03:42 56.066593 -13.026164 311 35147ft 452kts
11-Jun-18 03:43 56.149940 -13.195915 311 35145ft 453kts
11-Jun-18 03:44 56.232899 -13.366088 311 35144ft 453kts
11-Jun-18 03:45 56.315589 -13.536927 311 35144ft 454kts
11-Jun-18 03:46 56.398405 -13.709263 310 35142ft 453kts
11-Jun-18 03:47 56.480698 -13.881754 310 35141ft 453kts
11-Jun-18 03:48 56.563027 -14.055582 310 35141ft 454kts
11-Jun-18 03:49 56.644983 -14.229883 310 35139ft 454kts
11-Jun-18 03:50 56.726717 -14.404992 310 35137ft 454kts
11-Jun-18 03:51 56.808511 -14.580694 310 35136ft 453kts
11-Jun-18 03:52 56.889660 -14.756805 309 35135ft 453kts
11-Jun-18 03:53 56.970225 -14.934267 309 35134ft 453kts
11-Jun-18 03:54 57.031768 -15.135631 292 35133ft 455kts
11-Jun-18 03:55 57.078231 -15.351948 292 35106ft 455kts
11-Jun-18 03:56 57.124917 -15.568133 292 35103ft 455kts
11-Jun-18 03:57 57.173296 -15.783996 292 35101ft 455kts
11-Jun-18 03:58 57.220398 -16.000297 292 35099ft 455kts
11-Jun-18 03:59 57.266926 -16.217456 291 35096ft 455kts
11-Jun-18 04:00 57.313207 -16.435966 291 35095ft 455kts
11-Jun-18 04:01 57.358960 -16.654342 291 35093ft 456kts
11-Jun-18 04:02 57.404399 -16.873588 290 35091ft 456kts
11-Jun-18 04:03 57.449679 -17.094464 290 35089ft 457kts
11-Jun-18 04:04 57.494486 -17.315462 290 35087ft 457kts
11-Jun-18 04:05 57.538900 -17.536972 289 35087ft 458kts
11-Jun-18 04:06 57.583104 -17.759926 289 35095ft 458kts
11-Jun-18 04:07 57.626782 -17.982742 288 35093ft 457kts
11-Jun-18 04:08 57.670019 -18.205834 288 35093ft 458kts
11-Jun-18 04:09 57.713120 -18.430818 288 35093ft 459kts
11-Jun-18 04:10 57.755704 -18.655698 287 35090ft 459kts
11-Jun-18 04:11 57.798088 -18.882179 287 35089ft 460kts
11-Jun-18 04:12 57.840042 -19.109049 287 35088ft 461kts
11-Jun-18 04:13 57.881663 -19.336835 286 35088ft 462kts
11-Jun-18 04:14 57.923792 -19.565838 286 35086ft 462kts
11-Jun-18 04:15 57.964246 -19.795431 285 35086ft 462kts
11-Jun-18 04:16 58.004158 -20.025477 283 35085ft 462kts
11-Jun-18 04:17 58.036639 -20.260253 281 35098ft 461kts
11-Jun-18 04:18 58.068180 -20.494644 281 35098ft 461kts
11-Jun-18 04:19 58.100535 -20.728972 281 35107ft 463kts
11-Jun-18 04:20 58.133433 -20.965808 280 35096ft 464kts
11-Jun-18 04:21 58.165031 -21.202149 279 35095ft 463kts
11-Jun-18 04:22 58.196120 -21.439287 279 35094ft 462kts
11-Jun-18 04:23 58.226612 -21.675766 279 35094ft 462kts
11-Jun-18 04:24 58.256733 -21.913231 279 35091ft 461kts
11-Jun-18 04:25 58.286289 -22.150076 279 35090ft 461kts
11-Jun-18 04:26 58.315436 -22.387575 278 35090ft 462kts
11-Jun-18 04:27 58.344242 -22.626285 278 35089ft 462kts
11-Jun-18 04:28 58.372539 -22.864843 278 35075ft 462kts
11-Jun-18 04:29 58.400358 -23.103481 278 35073ft 461kts
11-Jun-18 04:30 58.427767 -23.342813 277 35072ft 460kts
11-Jun-18 04:31 58.454594 -23.581288 277 35073ft 459kts
11-Jun-18 04:32 58.480901 -23.819411 277 35108ft 458kts
11-Jun-18 04:33 58.506816 -24.058367 277 35108ft 458kts
11-Jun-18 04:34 58.532223 -24.297061 276 35108ft 458kts
11-Jun-18 04:35 58.557303 -24.537241 276 35108ft 459kts
11-Jun-18 04:36 58.581916 -24.777565 275 35108ft 461kts
11-Jun-18 04:37 58.606127 -25.018707 275 35108ft 461kts
11-Jun-18 04:38 58.629968 -25.261008 275 35108ft 461kts
11-Jun-18 04:39 58.653261 -25.502691 275 35108ft 461kts
11-Jun-18 04:40 58.672326 -25.704323 275 35108ft 461kts
11-Jun-18 04:41 58.694841 -25.947171 274 35107ft 460kts
11-Jun-18 04:42 58.716854 -26.189810 274 35108ft 462kts
11-Jun-18 04:43 58.738478 -26.433564 274 35108ft 463kts
11-Jun-18 04:44 58.763264 -26.719952 273 35110ft 464kts
11-Jun-18 04:45 58.784001 -26.965695 273 35109ft 466kts
11-Jun-18 04:46 58.804314 -27.212268 273 35109ft 466kts
11-Jun-18 04:47 58.824258 -27.460418 273 35109ft 467kts
11-Jun-18 04:48 58.840476 -27.666932 273 35111ft 468kts
11-Jun-18 04:49 58.859511 -27.915107 272 35111ft 467kts
11-Jun-18 04:50 58.878160 -28.164780 272 35112ft 470kts
11-Jun-18 04:51 58.896357 -28.415122 272 35112ft 471kts
11-Jun-18 04:52 58.914087 -28.665967 272 35115ft 472kts
11-Jun-18 04:53 58.931433 -28.918563 272 35116ft 473kts
11-Jun-18 04:54 58.948262 -29.171009 271 35118ft 473kts
11-Jun-18 04:55 58.967995 -29.466201 272 35120ft 475kts
11-Jun-18 04:56 58.981141 -29.678779 271 35119ft 475kts
11-Jun-18 04:57 58.996085 -29.933128 271 35120ft 476kts
11-Jun-18 04:58 59.024934 -30.185470 280 35122ft 485kts
11-Jun-18 04:59 59.060286 -30.439431 279 35122ft 486kts
11-Jun-18 05:00 59.094608 -30.693333 280 35123ft 487kts
11-Jun-18 05:01 59.130364 -30.947445 279 35124ft 488kts
11-Jun-18 05:02 59.164642 -31.204024 279 35106ft 489kts
11-Jun-18 05:03 59.198190 -31.460916 279 35104ft 490kts
11-Jun-18 05:04 59.231262 -31.718790 279 35104ft 490kts
11-Jun-18 05:05 59.263985 -31.978489 278 35106ft 492kts
11-Jun-18 05:06 59.296212 -32.238883 278 35106ft 494kts
11-Jun-18 05:07 59.328094 -32.501215 278 35108ft 494kts
11-Jun-18 05:08 59.359323 -32.762973 278 35104ft 494kts
11-Jun-18 05:09 59.390032 -33.025260 278 35104ft 494kts
11-Jun-18 05:10 59.420382 -33.289496 278 35105ft 496kts
11-Jun-18 05:11 59.450165 -33.553917 277 35105ft 497kts
11-Jun-18 05:12 59.479496 -33.819562 277 35107ft 498kts
11-Jun-18 05:13 59.508442 -34.087112 277 35107ft 499kts
11-Jun-18 05:14 59.536818 -34.354884 277 35108ft 500kts
11-Jun-18 05:15 59.564622 -34.622873 277 35109ft 499kts
11-Jun-18 05:16 59.591948 -34.891996 277 35110ft 499kts
11-Jun-18 05:17 59.618668 -35.161019 276 35110ft 500kts
11-Jun-18 05:18 59.644897 -35.431094 276 35111ft 502kts
11-Jun-18 05:19 59.670739 -35.703393 276 35120ft 503kts
11-Jun-18 05:20 59.695992 -35.975839 276 35121ft 504kts
11-Jun-18 05:21 59.720705 -36.248983 276 35122ft 504kts
11-Jun-18 05:22 59.744924 -36.523350 275 35122ft 504kts
11-Jun-18 05:23 59.768445 -36.796654 275 35123ft 503kts
11-Jun-18 05:24 59.791400 -37.070353 275 35123ft 503kts
11-Jun-18 05:25 59.813886 -37.345654 275 34984ft 504kts
11-Jun-18 05:26 59.835743 -37.620656 275 34962ft 505kts
11-Jun-18 05:27 59.857078 -37.896680 275 34957ft 506kts
11-Jun-18 05:28 59.877927 -38.174293 275 34953ft 506kts
11-Jun-18 05:29 59.898121 -38.451284 274 34948ft 505kts
11-Jun-18 05:30 59.917767 -38.729031 274 34943ft 505kts
11-Jun-18 05:31 59.936753 -39.005988 274 34938ft 505kts
11-Jun-18 05:32 59.955179 -39.283545 274 34933ft 506kts
11-Jun-18 05:33 59.973948 -39.562888 274 34929ft 507kts
11-Jun-18 05:34 59.990670 -39.842525 274 34923ft 508kts
11-Jun-18 05:35 60.003229 -40.123236 268 34918ft 507kts
11-Jun-18 05:36 60.006228 -40.405323 268 34912ft 506kts
11-Jun-18 05:37 60.009211 -40.686507 268 34907ft 507kts
11-Jun-18 05:38 60.014349 -40.968057 269 34902ft 508kts
11-Jun-18 05:39 60.017584 -41.251095 268 34897ft 508kts
11-Jun-18 05:40 60.019979 -41.533697 268 34895ft 509kts
11-Jun-18 05:41 60.021748 -41.816800 268 34888ft 510kts
11-Jun-18 05:42 60.022911 -42.100994 268 34884ft 510kts
11-Jun-18 05:43 60.023464 -42.384250 267 34880ft 510kts
11-Jun-18 05:44 60.023410 -42.667506 267 34876ft 510kts
11-Jun-18 05:45 60.022746 -42.951973 267 34872ft 511kts
11-Jun-18 05:46 60.021474 -43.236159 267 34869ft 512kts
11-Jun-18 05:47 60.019582 -43.521659 267 34867ft 513kts
11-Jun-18 05:48 60.017084 -43.806417 267 34864ft 513kts
11-Jun-18 05:49 60.013971 -44.091423 266 34862ft 513kts
11-Jun-18 05:50 60.010378 -44.377172 267 34860ft 513kts
11-Jun-18 05:51 60.006504 -44.661935 266 34860ft 513kts
11-Jun-18 05:52 60.000894 -44.946303 263 34855ft 512kts
11-Jun-18 05:53 59.962406 -45.217966 247 34859ft 506kts
11-Jun-18 05:54 59.913353 -45.480543 247 34854ft 506kts
11-Jun-18 05:55 59.865486 -45.744173 248 34856ft 507kts
11-Jun-18 05:56 59.817795 -46.009058 247 34857ft 508kts
11-Jun-18 05:57 59.768964 -46.271690 247 34858ft 507kts
11-Jun-18 05:58 59.719594 -46.533104 247 34860ft 506kts
11-Jun-18 05:59 59.669607 -46.794200 247 34862ft 506kts
11-Jun-18 06:00 59.619323 -47.053375 247 34863ft 505kts
11-Jun-18 06:01 59.568578 -47.311526 247 34865ft 505kts
11-Jun-18 06:02 59.517149 -47.569781 246 34867ft 505kts
11-Jun-18 06:03 59.465374 -47.826450 246 34870ft 505kts
11-Jun-18 06:04 59.413108 -48.082285 246 34850ft 505kts
11-Jun-18 06:05 59.360158 -48.338220 246 34851ft 505kts
11-Jun-18 06:06 59.306918 -48.592360 246 34853ft 505kts
11-Jun-18 06:07 59.253048 -48.846364 246 34858ft 504kts
11-Jun-18 06:08 59.198858 -49.098765 245 34868ft 505kts
11-Jun-18 06:09 59.144155 -49.350499 245 34872ft 505kts
11-Jun-18 06:10 59.089471 -49.602760 245 34876ft 505kts
11-Jun-18 06:11 59.033295 -49.852551 245 34879ft 505kts
11-Jun-18 06:12 58.977988 -50.102452 246 34883ft 505kts
11-Jun-18 06:13 58.923964 -50.354078 246 34887ft 504kts
11-Jun-18 06:14 58.869327 -50.603672 246 34891ft 504kts
11-Jun-18 06:15 58.816338 -50.854185 246 34895ft 504kts
11-Jun-18 06:16 58.761694 -51.103874 246 34898ft 504kts
11-Jun-18 06:17 58.706520 -51.351751 245 34902ft 504kts
11-Jun-18 06:18 58.650850 -51.598769 245 34906ft 504kts
11-Jun-18 06:19 58.594509 -51.845840 245 34998ft 504kts
11-Jun-18 06:20 58.537911 -52.091183 245 35007ft 504kts
11-Jun-18 06:21 58.480905 -52.335485 245 35008ft 503kts
11-Jun-18 06:22 58.423239 -52.579820 244 35008ft 503kts
11-Jun-18 06:23 58.365302 -52.822552 244 34999ft 503kts
11-Jun-18 06:24 58.306739 -53.065181 244 34999ft 503kts
11-Jun-18 06:25 58.247893 -53.306294 244 35000ft 503kts
11-Jun-18 06:26 58.188575 -53.546680 244 35001ft 503kts
11-Jun-18 06:27 58.128697 -53.786701 243 35001ft 503kts
11-Jun-18 06:28 58.068552 -54.025196 243 35002ft 503kts
11-Jun-18 06:29 58.007956 -54.262914 243 35003ft 503kts
11-Jun-18 06:30 57.946760 -54.500437 243 35003ft 502kts
11-Jun-18 06:31 57.885412 -54.736038 243 35005ft 501kts
11-Jun-18 06:32 57.823762 -54.970341 243 34983ft 501kts
11-Jun-18 06:33 57.761586 -55.204197 243 34959ft 500kts
11-Jun-18 06:34 57.699268 -55.436181 242 34958ft 499kts
11-Jun-18 06:35 57.636665 -55.666866 242 34959ft 499kts
11-Jun-18 06:36 57.573287 -55.898049 242 34958ft 499kts
11-Jun-18 06:37 57.509715 -56.127610 242 34958ft 499kts
11-Jun-18 06:38 57.445844 -56.355959 242 34958ft 498kts
11-Jun-18 06:39 57.381366 -56.584201 242 34957ft 498kts
11-Jun-18 06:40 57.316690 -56.810900 242 34958ft 498kts
11-Jun-18 06:41 57.251520 -57.037114 241 34957ft 497kts
11-Jun-18 06:42 57.186226 -57.261574 241 34970ft 497kts
11-Jun-18 06:43 57.120589 -57.485193 242 34969ft 497kts
11-Jun-18 06:44 57.054738 -57.709100 241 34969ft 496kts
11-Jun-18 06:45 56.987947 -57.930608 241 35015ft 496kts
11-Jun-18 06:46 56.920750 -58.151355 241 35059ft 497kts
11-Jun-18 06:47 56.852591 -58.371815 241 35060ft 497kts
11-Jun-18 06:48 56.784614 -58.590956 241 35019ft 496kts
11-Jun-18 06:49 56.717420 -58.810289 241 35021ft 497kts
11-Jun-18 06:50 56.648762 -59.029081 240 35022ft 497kts
11-Jun-18 06:51 56.579884 -59.246205 240 35071ft 497kts
11-Jun-18 06:52 56.510555 -59.462732 240 35106ft 498kts
11-Jun-18 06:53 56.440553 -59.679384 240 35107ft 498kts
11-Jun-18 06:54 56.370341 -59.894734 240 35107ft 498kts
11-Jun-18 06:55 56.299778 -60.109232 240 35108ft 498kts
11-Jun-18 06:56 56.228533 -60.323884 240 35108ft 498kts
11-Jun-18 06:57 56.157406 -60.537095 240 35108ft 498kts
11-Jun-18 06:58 56.085599 -60.750315 239 35108ft 498kts
11-Jun-18 06:59 56.013200 -60.961538 240 35108ft 498kts
11-Jun-18 07:00 55.958651 -61.187908 251 35108ft 497kts
11-Jun-18 07:01 55.909078 -61.418481 250 35109ft 497kts
11-Jun-18 07:02 55.859257 -61.647868 251 35110ft 497kts
11-Jun-18 07:03 55.809491 -61.879093 250 35828ft 505kts
11-Jun-18 07:04 55.766507 -62.073395 250 36892ft 506kts
11-Jun-18 07:05 55.714525 -62.305334 249 38060ft 507kts
11-Jun-18 07:06 55.661968 -62.537135 249 38975ft 508kts
11-Jun-18 07:07 55.608699 -62.769496 249 39117ft 508kts
11-Jun-18 07:08 55.555240 -63.000159 249 39118ft 508kts
11-Jun-18 07:09 55.501374 -63.230082 249 39119ft 507kts
11-Jun-18 07:10 55.446890 -63.460175 249 39121ft 507kts
11-Jun-18 07:11 55.392171 -63.688817 248 39122ft 507kts
11-Jun-18 07:12 55.337046 -63.916730 248 39125ft 507kts
11-Jun-18 07:13 55.281273 -64.144944 248 39133ft 507kts
11-Jun-18 07:14 55.225283 -64.371664 248 39137ft 508kts
11-Jun-18 07:15 55.168827 -64.597950 248 39140ft 508kts
11-Jun-18 07:16 55.111779 -64.824268 248 39143ft 508kts
11-Jun-18 07:17 55.054482 -65.049282 248 39145ft 508kts
11-Jun-18 07:18 54.996569 -65.274430 248 39148ft 508kts
11-Jun-18 07:19 54.938427 -65.498216 248 39151ft 508kts
11-Jun-18 07:20 54.879865 -65.721392 247 39153ft 508kts
11-Jun-18 07:21 54.820664 -65.944785 247 39138ft 508kts
11-Jun-18 07:22 54.761304 -66.166592 247 39140ft 508kts
11-Jun-18 07:23 54.701549 -66.387722 247 39139ft 508kts
11-Jun-18 07:24 54.641175 -66.608985 247 39140ft 508kts
11-Jun-18 07:25 54.580593 -66.828895 247 39139ft 508kts
11-Jun-18 07:26 54.519640 -67.048056 247 39140ft 508kts
11-Jun-18 07:27 54.458064 -67.267363 247 39141ft 508kts
11-Jun-18 07:28 54.396324 -67.485203 247 39141ft 508kts
11-Jun-18 07:29 54.334188 -67.702403 247 39143ft 508kts
11-Jun-18 07:30 54.271410 -67.919806 247 39143ft 508kts
11-Jun-18 07:31 54.208464 -68.135807 246 39145ft 508kts
11-Jun-18 07:32 54.145109 -68.351221 246 39150ft 508kts
11-Jun-18 07:33 54.081124 -68.566800 246 39160ft 509kts
11-Jun-18 07:34 54.017008 -68.780874 246 39163ft 508kts
11-Jun-18 07:35 53.952233 -68.995207 246 39166ft 509kts
11-Jun-18 07:36 53.887199 -69.208474 246 39169ft 509kts
11-Jun-18 07:37 53.821763 -69.421163 246 39172ft 510kts
11-Jun-18 07:38 53.755652 -69.634152 246 39174ft 510kts
11-Jun-18 07:39 53.689361 -69.845846 246 39178ft 510kts
11-Jun-18 07:40 53.622703 -70.056850 246 39182ft 511kts
11-Jun-18 07:41 53.555388 -70.268086 246 39187ft 511kts
11-Jun-18 07:42 53.487951 -70.477883 245 39192ft 511kts
11-Jun-18 07:43 53.419909 -70.687739 245 39196ft 511kts
11-Jun-18 07:44 53.351705 -70.896304 245 39201ft 511kts
11-Jun-18 07:45 53.283132 -71.104219 245 39206ft 511kts
11-Jun-18 07:46 53.213903 -71.312353 245 39211ft 512kts
11-Jun-18 07:47 53.144525 -71.519179 245 39215ft 512kts
11-Jun-18 07:48 53.074669 -71.725696 245 39225ft 513kts
11-Jun-18 07:49 53.004214 -71.932247 245 39232ft 511kts
11-Jun-18 07:50 52.933970 -72.136475 245 39232ft 510kts
11-Jun-18 07:51 52.863332 -72.340186 245 39235ft 511kts
11-Jun-18 07:52 52.792052 -72.544058 245 39234ft 511kts
11-Jun-18 07:53 52.720650 -72.746695 245 39243ft 512kts
11-Jun-18 07:54 52.648656 -72.949228 244 39239ft 512kts
11-Jun-18 07:55 52.576145 -73.151632 244 39235ft 513kts
11-Jun-18 07:56 52.503407 -73.353060 244 39230ft 513kts
11-Jun-18 07:57 52.430073 -73.554503 244 39231ft 514kts
11-Jun-18 07:58 52.356501 -73.755063 244 39245ft 516kts
11-Jun-18 07:59 52.282513 -73.955179 244 39244ft 515kts
11-Jun-18 08:00 52.207853 -74.155335 244 39249ft 515kts
11-Jun-18 08:01 52.133037 -74.354407 244 39246ft 515kts
11-Jun-18 08:02 52.057993 -74.552722 243 39251ft 515kts
11-Jun-18 08:03 51.982325 -74.750839 243 39251ft 513kts
11-Jun-18 08:04 51.906587 -74.947798 243 39248ft 517kts
11-Jun-18 08:05 51.830394 -75.144430 244 39259ft 516kts
11-Jun-18 08:06 51.753588 -75.341024 243 39250ft 517kts
11-Jun-18 08:07 51.676741 -75.536370 243 39252ft 516kts
11-Jun-18 08:08 51.599491 -75.732452 243 39253ft 517kts
11-Jun-18 08:09 51.521563 -75.926567 243 39263ft 517kts
11-Jun-18 08:10 51.434832 -76.112101 235 39264ft 526kts
11-Jun-18 08:11 51.339748 -76.290851 235 39257ft 525kts
11-Jun-18 08:12 51.245787 -76.469160 236 39261ft 525kts
11-Jun-18 08:13 51.152311 -76.647513 235 39264ft 525kts
11-Jun-18 08:14 51.057758 -76.825242 235 39264ft 525kts
11-Jun-18 08:15 50.963029 -77.001892 235 39265ft 526kts
11-Jun-18 08:16 50.867965 -77.177931 235 39265ft 526kts
11-Jun-18 08:17 50.772320 -77.353830 235 39266ft 526kts
11-Jun-18 08:18 50.676724 -77.528442 234 39267ft 527kts
11-Jun-18 08:19 50.580744 -77.702564 234 39239ft 527kts
11-Jun-18 08:20 50.484200 -77.876528 234 39237ft 527kts
11-Jun-18 08:21 50.387621 -78.049381 234 39238ft 528kts
11-Jun-18 08:22 50.290340 -78.222327 234 39238ft 528kts
11-Jun-18 08:23 50.193100 -78.394041 234 39239ft 528kts
11-Jun-18 08:24 50.095556 -78.565148 234 39239ft 528kts
11-Jun-18 08:25 49.997508 -78.735998 234 39240ft 528kts
11-Jun-18 08:26 49.899420 -78.905794 233 39238ft 529kts
11-Jun-18 08:27 49.801098 -79.074874 233 39238ft 528kts
11-Jun-18 08:28 49.702139 -79.243936 233 39244ft 529kts
11-Jun-18 08:29 49.603218 -79.411829 233 39245ft 529kts
11-Jun-18 08:30 49.503966 -79.579195 233 39247ft 530kts
11-Jun-18 08:31 49.404163 -79.746401 232 39248ft 530kts
11-Jun-18 08:32 49.304480 -79.912329 232 39241ft 529kts
11-Jun-18 08:33 49.204688 -80.077377 232 39238ft 528kts
11-Jun-18 08:34 49.104515 -80.241999 232 39238ft 527kts
11-Jun-18 08:35 49.004562 -80.405220 232 39234ft 527kts
11-Jun-18 08:36 48.904175 -80.568115 231 39233ft 526kts
11-Jun-18 08:37 48.803981 -80.729680 231 39232ft 526kts
11-Jun-18 08:38 48.703621 -80.890509 231 39231ft 526kts
11-Jun-18 08:39 48.602711 -81.051215 230 39230ft 525kts
11-Jun-18 08:40 48.502075 -81.210494 230 39230ft 524kts
11-Jun-18 08:41 48.401412 -81.368841 230 39230ft 523kts
11-Jun-18 08:42 48.300387 -81.526791 230 39230ft 523kts
11-Jun-18 08:43 48.199559 -81.683475 229 39229ft 522kts
11-Jun-18 08:44 48.098696 -81.839271 229 39230ft 521kts
11-Jun-18 08:45 47.997429 -81.994752 229 39230ft 521kts
11-Jun-18 08:46 47.896258 -82.149162 229 39231ft 521kts
11-Jun-18 08:47 47.794942 -82.302876 229 39230ft 520kts
11-Jun-18 08:48 47.693351 -82.456098 229 39230ft 519kts
11-Jun-18 08:49 47.592118 -82.607885 229 39228ft 517kts
11-Jun-18 08:50 47.490809 -82.758897 229 39227ft 515kts
11-Jun-18 08:51 47.389998 -82.908309 228 39226ft 513kts
11-Jun-18 08:52 47.289333 -83.056648 228 39225ft 511kts
11-Jun-18 08:53 47.188446 -83.204465 228 39224ft 510kts
11-Jun-18 08:54 47.087924 -83.350923 228 39222ft 509kts
11-Jun-18 08:55 46.987475 -83.496455 228 39216ft 507kts
11-Jun-18 08:56 46.886834 -83.641454 228 39209ft 506kts
11-Jun-18 08:57 46.786635 -83.785020 228 39207ft 504kts
11-Jun-18 08:58 46.686604 -83.927564 228 39205ft 502kts
11-Jun-18 08:59 46.586795 -84.069743 228 39202ft 499kts
11-Jun-18 09:00 46.487387 -84.209430 227 39201ft 498kts
11-Jun-18 09:01 46.381286 -84.337680 213 39206ft 503kts
11-Jun-18 09:02 46.255459 -84.429767 209 39209ft 507kts
11-Jun-18 09:03 46.129380 -84.520335 209 39208ft 506kts
11-Jun-18 09:04 46.003440 -84.611866 209 39200ft 506kts
11-Jun-18 09:05 45.878316 -84.702005 209 39188ft 501kts
11-Jun-18 09:06 45.753774 -84.791163 209 39178ft 500kts
11-Jun-18 09:07 45.629179 -84.879897 209 39160ft 498kts
11-Jun-18 09:08 45.505323 -84.967675 209 39154ft 497kts
11-Jun-18 09:09 45.381829 -85.054760 209 39152ft 495kts
11-Jun-18 09:10 45.258150 -85.141552 209 39155ft 494kts
11-Jun-18 09:11 45.135127 -85.227464 209 39142ft 493kts
11-Jun-18 09:12 45.012280 -85.312844 209 39123ft 492kts
11-Jun-18 09:13 44.889417 -85.398157 209 39116ft 490kts
11-Jun-18 09:14 44.767033 -85.482212 209 39101ft 489kts
11-Jun-18 09:15 44.648839 -85.574086 221 39104ft 484kts
11-Jun-18 09:16 44.547919 -85.697479 225 39100ft 478kts
11-Jun-18 09:17 44.448463 -85.820452 224 39099ft 477kts
11-Jun-18 09:18 44.349286 -85.943065 225 39090ft 476kts
11-Jun-18 09:19 44.249722 -86.065316 224 39078ft 475kts
11-Jun-18 09:20 44.150396 -86.186342 224 39072ft 475kts
11-Jun-18 09:21 44.050584 -86.307331 224 39070ft 475kts
11-Jun-18 09:22 43.950937 -86.427552 224 39069ft 475kts
11-Jun-18 09:23 43.851170 -86.547361 224 39070ft 475kts
11-Jun-18 09:24 43.750997 -86.667105 224 39068ft 475kts
11-Jun-18 09:25 43.650975 -86.786122 224 39065ft 475kts
11-Jun-18 09:26 43.550842 -86.904728 224 39063ft 475kts
11-Jun-18 09:27 43.467015 -87.003608 223 39063ft 475kts
11-Jun-18 09:28 43.366769 -87.121364 223 39062ft 474kts
11-Jun-18 09:29 43.266416 -87.238715 223 39061ft 474kts
11-Jun-18 09:30 43.165512 -87.356179 223 39058ft 475kts
11-Jun-18 09:31 43.064799 -87.472899 223 39053ft 475kts
11-Jun-18 09:32 42.963962 -87.589242 223 39026ft 475kts
11-Jun-18 09:33 42.862651 -87.705613 223 39041ft 475kts
11-Jun-18 09:34 42.761431 -87.821364 223 39050ft 475kts
11-Jun-18 09:35 42.659775 -87.937101 223 39036ft 476kts
11-Jun-18 09:36 42.558219 -88.052214 223 39028ft 475kts
11-Jun-18 09:37 42.456712 -88.166772 223 39025ft 475kts
11-Jun-18 09:38 42.354708 -88.281387 223 39021ft 476kts
11-Jun-18 09:39 42.252866 -88.395323 223 39004ft 476kts
11-Jun-18 09:40 42.150997 -88.508797 223 38998ft 475kts
11-Jun-18 09:41 42.048767 -88.622182 223 38998ft 474kts
11-Jun-18 09:42 41.946923 -88.734668 222 38999ft 474kts
11-Jun-18 09:43 41.845004 -88.846736 222 38993ft 474kts
11-Jun-18 09:44 41.742839 -88.958609 222 38982ft 473kts
11-Jun-18 09:45 41.641092 -89.069555 221 38976ft 472kts
11-Jun-18 09:46 41.539108 -89.180294 221 38963ft 471kts
11-Jun-18 09:47 41.437476 -89.290194 221 38959ft 470kts
11-Jun-18 09:48 41.335982 -89.399935 221 38955ft 470kts
11-Jun-18 09:49 41.233827 -89.509207 221 38944ft 470kts
11-Jun-18 09:50 41.131776 -89.617781 220 38937ft 471kts
11-Jun-18 09:51 41.029224 -89.725497 220 38934ft 471kts
11-Jun-18 09:52 40.926073 -89.833395 219 38925ft 472kts
11-Jun-18 09:53 40.823354 -89.941314 219 38924ft 472kts
11-Jun-18 09:54 40.720373 -90.048797 219 38924ft 471kts
11-Jun-18 09:55 40.617367 -90.155660 218 38925ft 470kts
11-Jun-18 09:56 40.514409 -90.262034 218 38924ft 471kts
11-Jun-18 09:57 40.410982 -90.368466 218 38921ft 472kts
11-Jun-18 09:58 40.307639 -90.474389 217 38920ft 472kts
11-Jun-18 09:59 40.204532 -90.580056 217 38913ft 471kts
11-Jun-18 10:00 40.100899 -90.685179 217 38902ft 470kts
11-Jun-18 10:01 39.997738 -90.789514 217 38893ft 469kts
11-Jun-18 10:02 39.894405 -90.894202 216 38884ft 472kts
11-Jun-18 10:03 39.790290 -90.998648 216 38883ft 471kts
11-Jun-18 10:04 39.686660 -91.102238 216 38880ft 470kts
11-Jun-18 10:05 39.583025 -91.205149 216 38885ft 469kts
11-Jun-18 10:06 39.479120 -91.307933 215 38886ft 469kts
11-Jun-18 10:07 39.375716 -91.410530 215 38885ft 469kts
11-Jun-18 10:08 39.272222 -91.512580 215 38886ft 469kts
11-Jun-18 10:09 39.168159 -91.615003 215 38885ft 470kts
11-Jun-18 10:10 39.063772 -91.716763 215 38883ft 471kts
11-Jun-18 10:11 38.958775 -91.818848 215 38887ft 473kts
11-Jun-18 10:12 38.853804 -91.921039 215 38883ft 475kts
11-Jun-18 10:13 38.748204 -92.023084 215 38874ft 476kts
11-Jun-18 10:14 38.641963 -92.125243 214 38862ft 477kts
11-Jun-18 10:15 38.535679 -92.227021 214 38862ft 478kts
11-Jun-18 10:16 38.429086 -92.328683 214 38873ft 479kts
11-Jun-18 10:17 38.322127 -92.430792 214 38888ft 479kts
11-Jun-18 10:18 38.215471 -92.532564 214 38897ft 480kts
11-Jun-18 10:19 38.108600 -92.633392 214 38900ft 474kts
11-Jun-18 10:20 38.003677 -92.732062 214 38904ft 468kts
11-Jun-18 10:21 37.898459 -92.830472 215 38912ft 471kts
11-Jun-18 10:22 37.792631 -92.929119 215 38918ft 471kts
11-Jun-18 10:23 37.687391 -93.027550 215 38918ft 471kts
11-Jun-18 10:24 37.582060 -93.125656 215 38918ft 471kts
11-Jun-18 10:25 37.476054 -93.223589 215 38915ft 471kts
11-Jun-18 10:26 37.370129 -93.320515 211 38908ft 471kts
11-Jun-18 10:27 37.250133 -93.386973 200 38910ft 471kts
11-Jun-18 10:28 37.127629 -93.445372 200 38910ft 471kts
11-Jun-18 10:29 37.004905 -93.504829 201 38914ft 472kts
11-Jun-18 10:30 36.882470 -93.564297 201 38920ft 472kts
11-Jun-18 10:31 36.760244 -93.623297 201 38927ft 473kts
11-Jun-18 10:32 36.636560 -93.682773 201 38931ft 474kts
11-Jun-18 10:33 36.513535 -93.741725 201 38937ft 475kts
11-Jun-18 10:34 36.390242 -93.800605 200 38940ft 475kts
11-Jun-18 10:35 36.266487 -93.859504 200 38949ft 476kts
11-Jun-18 10:36 36.142903 -93.918123 200 38953ft 476kts
11-Jun-18 10:37 36.019259 -93.976572 200 38949ft 476kts
11-Jun-18 10:38 35.895184 -94.035030 200 38938ft 476kts
11-Jun-18 10:39 35.771503 -94.093104 200 38935ft 476kts
11-Jun-18 10:40 35.647559 -94.151258 200 38933ft 477kts
11-Jun-18 10:41 35.522865 -94.209377 200 38920ft 479kts
11-Jun-18 10:42 35.399005 -94.269529 210 38909ft 480kts
11-Jun-18 10:43 35.294519 -94.372041 222 38910ft 481kts
11-Jun-18 10:44 35.194722 -94.481017 221 38911ft 482kts
11-Jun-18 10:45 35.094299 -94.589691 222 38911ft 483kts
11-Jun-18 10:46 34.993349 -94.698839 221 38910ft 484kts
11-Jun-18 10:47 34.892106 -94.807141 222 38913ft 485kts
11-Jun-18 10:48 34.790206 -94.914779 220 38918ft 486kts
11-Jun-18 10:49 34.686371 -95.020826 221 38914ft 487kts
11-Jun-18 10:50 34.588617 -95.120406 220 38923ft 487kts
11-Jun-18 10:51 34.484515 -95.225924 220 37441ft 498kts
11-Jun-18 10:52 34.376967 -95.334680 220 35118ft 491kts
11-Jun-18 10:53 34.271672 -95.440283 220 33817ft 509kts
11-Jun-18 10:54 34.158449 -95.553589 220 33809ft 543kts
11-Jun-18 10:55 34.046906 -95.664694 220 32403ft 496kts
11-Jun-18 10:56 33.944155 -95.766752 220 30402ft 464kts
11-Jun-18 10:57 33.846646 -95.864220 220 28201ft 446kts
11-Jun-18 10:58 33.752198 -95.957497 220 26002ft 433kts
11-Jun-18 10:59 33.660664 -96.047943 220 23804ft 420kts
11-Jun-18 11:00 33.571393 -96.135643 220 21598ft 407kts
11-Jun-18 11:01 33.485019 -96.220101 220 19403ft 395kts
11-Jun-18 11:02 33.407556 -96.310187 230 17203ft 384kts
11-Jun-18 11:03 33.338920 -96.406192 233 14996ft 373kts
11-Jun-18 11:04 33.300390 -96.515483 253 13522ft 345kts
11-Jun-18 11:05 33.289255 -96.624799 263 12130ft 322kts
11-Jun-18 11:06 33.280039 -96.727173 263 11050ft 295kts
11-Jun-18 11:07 33.272250 -96.822839 260 9538ft 289kts
11-Jun-18 11:08 33.253612 -96.916330 253 7925ft 287kts
11-Jun-18 11:09 33.234973 -97.008012 251 6285ft 276kts
11-Jun-18 11:10 33.179045 -97.055489 186 4680ft 249kts
11-Jun-18 11:11 33.115660 -97.053728 180 4182ft 199kts
11-Jun-18 11:12 33.069453 -97.053775 181 3584ft 139kts
11-Jun-18 11:13 33.032489 -97.053960 181 2878ft 132kts
11-Jun-18 11:14 32.995657 -97.054152 180 2178ft 138kts
11-Jun-18 11:15 32.958638 -97.054343 178 1453ft 129kts
11-Jun-18 11:16 32.922404 -97.054492 178 760ft 136kts
11-Jun-18 11:17 32.896294 -97.054299 157 621ft 43kts
11-Jun-18 11:18 32.894253 -97.046741 75 620ft 18kts
11-Jun-18 11:19 32.894973 -97.044860 358 620ft 0kts
11-Jun-18 11:20 32.894982 -97.044861 358 620ft 0kts

Navigation Log

Ident Type
Flight plan parsing failed, navigation log unavailable